Time;durP1;ratioP1;P1;durP2;ratioP2;P2;SDS_P1;SDS_P2;PMS_P1;PMS_P2;Temp;Humidity;BMP_temperature;BMP_pressure;BME280_temperature;BME280_humidity;BME280_pressure;Samples;Min_cycle;Max_cycle;Signal;HPM_P1;HPM_P2
2023/09/06 00:01:30;;;;;;;13.52;7.75;;;13.90;99.90;;;;;;7593451;19;20029;-74
2023/09/06 00:04:03;;;;;;;;;;;13.90;99.90;;;;;;7581016;19;20029;-74
2023/09/06 00:06:35;;;;;;;12.07;7.72;;;13.80;99.90;;;;;;7603242;19;19922;-77
2023/09/06 00:09:10;;;;;;;11.35;7.45;;;13.80;99.90;;;;;;7571853;19;20029;-73
2023/09/06 00:11:42;;;;;;;10.77;6.78;;;13.80;99.90;;;;;;7582775;19;20022;-75
2023/09/06 00:14:15;;;;;;;10.75;7.18;;;13.70;99.90;;;;;;7585082;19;20010;-73
2023/09/06 00:16:48;;;;;;;12.32;8.02;;;13.70;99.90;;;;;;7583203;19;20002;-73
2023/09/06 00:19:20;;;;;;;18.58;8.15;;;13.60;99.90;;;;;;7594265;19;20023;-75
2023/09/06 00:21:59;;;;;;;12.85;8.07;;;13.50;99.90;;;;;;7591979;19;21066;-74
2023/09/06 00:24:31;;;;;;;9.98;7.65;;;13.40;99.90;;;;;;7597567;19;20015;-74
2023/09/06 00:27:04;;;;;;;12.48;8.40;;;13.40;99.90;;;;;;7603531;19;20015;-74
2023/09/06 00:29:37;;;;;;;10.45;7.70;;;13.40;99.90;;;;;;7598306;19;20030;-74
2023/09/06 00:32:10;;;;;;;14.05;7.85;;;13.40;99.90;;;;;;7579908;19;20858;-74
2023/09/06 00:34:42;;;;;;;10.32;7.57;;;13.40;99.90;;;;;;7597706;19;20620;-73
2023/09/06 00:37:15;;;;;;;12.23;7.93;;;13.40;99.90;;;;;;7604723;19;21094;-77
2023/09/06 00:39:47;;;;;;;13.15;8.43;;;13.20;99.90;;;;;;7593756;19;20014;-77
2023/09/06 00:42:24;;;;;;;11.30;7.65;;;13.20;99.90;;;;;;7586954;19;20018;-73
2023/09/06 00:44:56;;;;;;;10.90;7.80;;;13.20;99.90;;;;;;7596362;19;20010;-74
2023/09/06 00:47:28;;;;;;;9.07;7.18;;;13.20;99.90;;;;;;7556846;19;20098;-77
2023/09/06 00:50:00;;;;;;;13.90;8.27;;;13.20;99.90;;;;;;7564121;19;20018;-77
2023/09/06 00:52:32;;;;;;;12.27;7.90;;;13.20;99.90;;;;;;7573412;19;20356;-75
2023/09/06 00:55:06;;;;;;;9.20;7.50;;;13.20;99.90;;;;;;7581216;19;20011;-75
2023/09/06 00:57:40;;;;;;;;;;;13.30;99.90;;;;;;7597892;19;20010;-74
2023/09/06 01:00:17;;;;;;;11.77;8.55;;;13.30;99.90;;;;;;7589339;19;19926;-73
2023/09/06 01:02:50;;;;;;;10.98;7.82;;;13.30;99.90;;;;;;7605556;19;20022;-77
2023/09/06 01:05:25;;;;;;;11.65;8.00;;;13.20;99.90;;;;;;7607359;19;20025;-74
2023/09/06 01:08:03;;;;;;;10.95;7.78;;;13.10;99.90;;;;;;7606020;19;20031;-74
2023/09/06 01:10:35;;;;;;;10.80;7.30;;;13.00;99.90;;;;;;7596583;19;20022;-75
2023/09/06 01:13:07;;;;;;;13.88;8.18;;;13.00;99.90;;;;;;7591051;19;20015;-75
2023/09/06 01:15:44;;;;;;;14.73;8.63;;;12.90;99.90;;;;;;7567863;19;20066;-75
2023/09/06 01:18:19;;;;;;;14.30;8.20;;;12.90;99.90;;;;;;7572713;19;20037;-73
2023/09/06 01:20:56;;;;;;;13.52;8.93;;;12.90;99.90;;;;;;7582269;19;20032;-74
2023/09/06 01:23:40;;;;;;;15.68;8.90;;;12.80;99.90;;;;;;7593918;19;20022;-73
2023/09/06 01:26:13;;;;;;;11.90;8.50;;;12.70;99.90;;;;;;7598898;19;20025;-75
2023/09/06 01:28:49;;;;;;;11.43;7.80;;;12.70;99.90;;;;;;7591759;19;20033;-74
2023/09/06 01:31:21;;;;;;;13.43;8.25;;;12.80;99.90;;;;;;7583351;19;20014;-74
2023/09/06 01:33:53;;;;;;;12.65;8.15;;;12.80;99.90;;;;;;7594733;19;20507;-75
2023/09/06 01:36:26;;;;;;;12.55;7.53;;;12.70;99.90;;;;;;7591267;19;21258;-75
2023/09/06 01:38:58;;;;;;;16.05;8.90;;;12.70;99.90;;;;;;7586687;19;20018;-76
2023/09/06 01:41:30;;;;;;;12.75;7.60;;;12.70;99.90;;;;;;7588276;19;20014;-77
2023/09/06 01:44:03;;;;;;;9.95;7.82;;;12.60;99.90;;;;;;7589759;19;20447;-76
2023/09/06 01:46:35;;;;;;;10.68;7.43;;;12.70;99.90;;;;;;7583305;19;20018;-77
2023/09/06 01:49:10;;;;;;;14.27;7.60;;;12.70;99.90;;;;;;7577304;19;20018;-78
2023/09/06 01:51:43;;;;;;;11.45;7.53;;;12.70;99.90;;;;;;7597288;19;20018;-74
2023/09/06 01:54:15;;;;;;;13.27;7.45;;;12.60;99.90;;;;;;7593460;19;20015;-75
2023/09/06 01:56:48;;;;;;;12.55;9.13;;;12.50;99.90;;;;;;7601855;19;20528;-75
2023/09/06 01:59:20;;;;;;;13.02;8.32;;;12.40;99.90;;;;;;7595493;19;20026;-73
2023/09/06 02:01:54;;;;;;;10.80;8.27;;;12.30;99.90;;;;;;7568845;19;20014;-77
2023/09/06 02:04:27;;;;;;;14.68;8.77;;;12.40;99.90;;;;;;7579213;19;20052;-75
2023/09/06 02:07:02;;;;;;;11.60;8.30;;;12.40;99.90;;;;;;7573499;19;20404;-73
2023/09/06 02:09:34;;;;;;;16.10;9.10;;;12.40;99.90;;;;;;7579095;19;20019;-76
2023/09/06 02:12:07;;;;;;;13.65;7.65;;;12.30;99.90;;;;;;7571164;19;20098;-77
2023/09/06 02:14:40;;;;;;;11.05;8.55;;;12.40;99.90;;;;;;7580448;19;20030;-75
2023/09/06 02:17:12;;;;;;;10.25;8.13;;;12.40;99.90;;;;;;7582921;19;21189;-77
2023/09/06 02:19:44;;;;;;;12.25;8.50;;;12.40;99.90;;;;;;7588327;19;20019;-74
2023/09/06 02:22:18;;;;;;;12.27;8.63;;;12.40;99.90;;;;;;7592374;19;20022;-75
2023/09/06 02:24:51;;;;;;;10.32;7.85;;;12.40;99.90;;;;;;7594710;19;20034;-75
2023/09/06 02:27:23;;;;;;;13.80;8.70;;;12.40;99.90;;;;;;7575088;19;20011;-74
2023/09/06 02:29:57;;;;;;;10.55;7.85;;;12.30;99.90;;;;;;7562841;19;20026;-74
2023/09/06 02:32:31;;;;;;;13.98;7.90;;;12.30;99.90;;;;;;7561812;19;20041;-77
2023/09/06 02:35:07;;;;;;;13.77;8.38;;;12.40;99.90;;;;;;7580316;19;20015;-74
2023/09/06 02:37:39;;;;;;;10.65;7.50;;;12.30;99.90;;;;;;7590491;19;20015;-74
2023/09/06 02:40:12;;;;;;;11.18;7.47;;;12.30;99.90;;;;;;7559261;19;20484;-75
2023/09/06 02:42:45;;;;;;;13.52;8.40;;;12.30;99.90;;;;;;7565014;19;20007;-75
2023/09/06 02:45:18;;;;;;;12.20;7.82;;;12.20;99.90;;;;;;7559663;19;20018;-77
2023/09/06 02:47:50;;;;;;;11.57;8.13;;;12.20;99.90;;;;;;7552118;19;20554;-74
2023/09/06 02:50:23;;;;;;;13.18;8.00;;;12.20;99.90;;;;;;7540005;19;20280;-76
2023/09/06 02:52:56;;;;;;;11.38;8.10;;;12.10;99.90;;;;;;7552218;19;20013;-74
2023/09/06 02:55:35;;;;;;;13.48;8.30;;;12.10;99.90;;;;;;7539451;19;20086;-77
2023/09/06 02:58:08;;;;;;;11.40;8.32;;;12.00;99.90;;;;;;7546129;19;20018;-76
2023/09/06 03:00:43;;;;;;;14.68;9.10;;;12.00;99.90;;;;;;7581508;19;20064;-77
2023/09/06 03:03:16;;;;;;;15.50;9.48;;;12.00;99.90;;;;;;7574439;19;20014;-76
2023/09/06 03:05:48;;;;;;;;;;;11.80;99.90;;;;;;7589852;19;20048;-74
2023/09/06 03:08:25;;;;;;;13.65;9.18;;;11.80;99.90;;;;;;7593669;19;19961;-76
2023/09/06 03:10:58;;;;;;;13.95;8.48;;;11.80;99.90;;;;;;7568896;19;20010;-76
2023/09/06 03:13:33;;;;;;;13.18;8.95;;;11.80;99.90;;;;;;7562617;19;20014;-74
2023/09/06 03:16:06;;;;;;;9.52;6.22;;;11.80;99.90;;;;;;7583628;19;20011;-76
2023/09/06 03:18:39;;;;;;;14.23;8.68;;;11.80;99.90;;;;;;7587499;19;20014;-78
2023/09/06 03:21:12;;;;;;;10.00;7.97;;;11.70;99.90;;;;;;7566253;19;20022;-77
2023/09/06 03:23:49;;;;;;;18.15;8.88;;;11.70;99.90;;;;;;7596242;19;20029;-77
2023/09/06 03:26:22;;;;;;;13.40;8.13;;;11.70;99.90;;;;;;7566671;19;20350;-77
2023/09/06 03:28:56;;;;;;;11.45;7.93;;;11.70;99.90;;;;;;7578359;19;20010;-76
2023/09/06 03:31:29;;;;;;;13.73;8.57;;;11.70;99.90;;;;;;7572285;19;20374;-76
2023/09/06 03:34:02;;;;;;;14.38;8.38;;;11.70;99.90;;;;;;7591957;19;20450;-75
2023/09/06 03:36:35;;;;;;;11.98;8.48;;;11.70;99.90;;;;;;7599845;19;20499;-76
2023/09/06 03:39:12;;;;;;;11.13;8.00;;;11.70;99.90;;;;;;7595449;19;20073;-77
2023/09/06 03:41:46;;;;;;;12.88;7.85;;;11.70;99.90;;;;;;7582858;19;20461;-76
2023/09/06 03:44:18;;;;;;;15.23;9.75;;;11.60;99.90;;;;;;7587119;19;20946;-77
2023/09/06 03:46:51;;;;;;;9.77;7.60;;;11.50;99.90;;;;;;7593543;19;20054;-76
2023/09/06 03:49:26;;;;;;;10.90;8.32;;;11.50;99.90;;;;;;7593571;19;20022;-77
2023/09/06 03:52:05;;;;;;;14.18;8.45;;;11.50;99.90;;;;;;7596969;19;21092;-76
2023/09/06 03:54:37;;;;;;;15.18;9.95;;;11.50;99.90;;;;;;7599938;19;20021;-77
2023/09/06 03:57:12;;;;;;;13.50;9.40;;;11.40;99.90;;;;;;7570892;19;20014;-76
2023/09/06 03:59:46;;;;;;;13.95;8.25;;;11.30;99.90;;;;;;7586360;19;20015;-77
2023/09/06 04:02:18;;;;;;;11.65;8.25;;;11.30;99.90;;;;;;7584885;19;20018;-77
2023/09/06 04:04:52;;;;;;;14.48;9.35;;;11.30;99.90;;;;;;7577336;19;20021;-77
2023/09/06 04:07:25;;;;;;;15.52;7.78;;;11.30;99.90;;;;;;7586800;19;20698;-76
2023/09/06 04:10:01;;;;;;;14.73;8.60;;;11.20;99.90;;;;;;7582473;19;20014;-77
2023/09/06 04:12:35;;;;;;;13.05;7.95;;;11.20;99.90;;;;;;7589322;19;20363;-77
2023/09/06 04:15:08;;;;;;;18.90;8.52;;;11.30;99.90;;;;;;7580775;19;21855;-77
2023/09/06 04:17:40;;;;;;;11.15;8.20;;;11.20;99.90;;;;;;7601050;19;20022;-77
2023/09/06 04:20:19;;;;;;;12.43;7.75;;;11.30;99.90;;;;;;7581453;19;20924;-77
2023/09/06 04:22:51;;;;;;;13.30;7.80;;;11.30;99.90;;;;;;7597097;19;20374;-76
2023/09/06 04:25:26;;;;;;;11.02;7.65;;;11.30;99.90;;;;;;7566556;19;20623;-76
2023/09/06 04:28:01;;;;;;;13.98;8.02;;;11.30;99.90;;;;;;7569822;19;20010;-77
2023/09/06 04:30:35;;;;;;;13.05;8.63;;;11.30;99.90;;;;;;7563482;19;21396;-77
2023/09/06 04:33:15;;;;;;;16.80;9.63;;;11.20;99.90;;;;;;7578546;19;20014;-76
2023/09/06 04:35:54;;;;;;;12.60;9.48;;;11.10;99.90;;;;;;7570089;19;20010;-77
2023/09/06 04:38:30;;;;;;;11.40;8.00;;;11.20;99.90;;;;;;7577502;19;20011;-76
2023/09/06 04:41:05;;;;;;;11.63;7.95;;;11.30;99.90;;;;;;7572888;19;20011;-77
2023/09/06 04:43:45;;;;;;;12.82;8.98;;;11.30;99.90;;;;;;7567052;19;21196;-77
2023/09/06 04:46:17;;;;;;;11.80;8.90;;;11.30;99.90;;;;;;7575955;19;20025;-76
2023/09/06 04:48:55;;;;;;;11.10;8.80;;;11.30;99.90;;;;;;7594254;19;20037;-76
2023/09/06 04:51:28;;;;;;;15.32;8.32;;;11.30;99.90;;;;;;7577260;19;20014;-77
2023/09/06 04:54:02;;;;;;;13.32;8.40;;;11.30;99.90;;;;;;7576101;19;20011;-76
2023/09/06 04:56:40;;;;;;;13.85;8.73;;;11.30;99.90;;;;;;7583009;19;20853;-76
2023/09/06 04:59:12;;;;;;;16.27;9.35;;;11.30;99.90;;;;;;7581063;19;20022;-76
2023/09/06 05:01:45;;;;;;;13.85;9.13;;;11.30;99.90;;;;;;7585774;19;20045;-77
2023/09/06 05:04:19;;;;;;;15.10;8.73;;;11.40;99.90;;;;;;7567385;19;20018;-75
2023/09/06 05:06:52;;;;;;;12.32;8.70;;;11.40;99.90;;;;;;7563667;19;20014;-77
2023/09/06 05:09:25;;;;;;;13.43;8.07;;;11.40;99.90;;;;;;7550205;19;20010;-75
2023/09/06 05:11:57;;;;;;;12.73;7.85;;;11.30;99.90;;;;;;7570903;19;20032;-75
2023/09/06 05:14:30;;;;;;;11.70;8.27;;;11.30;99.90;;;;;;7570739;19;20023;-75
2023/09/06 05:17:03;;;;;;;13.95;8.57;;;11.30;99.90;;;;;;7569777;19;20753;-76
2023/09/06 05:19:35;;;;;;;10.80;7.53;;;11.30;99.90;;;;;;7575590;19;20014;-75
2023/09/06 05:22:08;;;;;;;10.65;7.97;;;11.40;99.90;;;;;;7555648;19;20016;-74
2023/09/06 05:24:40;;;;;;;11.77;8.30;;;11.40;99.90;;;;;;7531209;19;20030;-74
2023/09/06 05:27:13;;;;;;;14.13;9.30;;;11.30;99.90;;;;;;7571535;19;20019;-77
2023/09/06 05:29:46;;;;;;;;;;;11.20;99.90;;;;;;7582267;19;20026;-73
2023/09/06 05:32:19;;;;;;;16.50;9.53;;;11.20;99.90;;;;;;7582190;19;19956;-76
2023/09/06 05:34:52;;;;;;;15.30;9.70;;;11.30;99.90;;;;;;7582609;19;20019;-77
2023/09/06 05:37:25;;;;;;;15.57;9.40;;;11.40;99.90;;;;;;7586786;19;20058;-75
2023/09/06 05:39:57;;;;;;;15.60;9.90;;;11.50;99.90;;;;;;7550505;19;20011;-76
2023/09/06 05:42:30;;;;;;;17.10;9.30;;;11.50;99.90;;;;;;7551119;19;22114;-74
2023/09/06 05:45:04;;;;;;;21.50;9.45;;;11.60;99.90;;;;;;7559515;19;20018;-77
2023/09/06 05:47:38;;;;;;;10.82;8.43;;;11.70;99.90;;;;;;7585134;19;20027;-75
2023/09/06 05:50:10;;;;;;;15.55;10.38;;;11.80;99.90;;;;;;7605368;19;20029;-76
2023/09/06 05:52:43;;;;;;;15.88;10.18;;;11.90;99.90;;;;;;7596124;19;20095;-78
2023/09/06 05:55:15;;;;;;;16.90;8.98;;;12.00;99.90;;;;;;7582984;19;20018;-77
2023/09/06 05:57:48;;;;;;;20.37;9.60;;;12.10;99.90;;;;;;7592641;19;20097;-75
2023/09/06 06:00:22;;;;;;;11.77;9.65;;;12.10;99.90;;;;;;7564546;19;20050;-75
2023/09/06 06:02:59;;;;;;;19.25;9.82;;;12.20;99.90;;;;;;7572966;19;20010;-76
2023/09/06 06:05:32;;;;;;;13.05;8.88;;;12.30;99.90;;;;;;7563303;19;21835;-74
2023/09/06 06:08:05;;;;;;;10.97;6.53;;;12.30;99.90;;;;;;7582110;19;20475;-74
2023/09/06 06:10:38;;;;;;;16.58;9.13;;;12.40;99.90;;;;;;7583638;19;20056;-74
2023/09/06 06:13:12;;;;;;;13.77;9.57;;;12.60;99.90;;;;;;7585417;19;20014;-78
2023/09/06 06:15:44;;;;;;;10.60;8.77;;;12.70;99.90;;;;;;7587164;19;21164;-75
2023/09/06 06:18:17;;;;;;;16.52;10.65;;;12.80;99.90;;;;;;7589985;19;20048;-74
2023/09/06 06:20:49;;;;;;;20.23;11.30;;;12.90;99.90;;;;;;7583532;19;20014;-76
2023/09/06 06:23:22;;;;;;;23.25;10.60;;;13.10;99.90;;;;;;7588902;19;20081;-75
2023/09/06 06:25:54;;;;;;;13.75;10.18;;;13.20;99.90;;;;;;7587498;19;22305;-76
2023/09/06 06:28:26;;;;;;;16.25;10.30;;;13.30;99.90;;;;;;7545683;19;20026;-78
2023/09/06 06:31:00;;;;;;;15.77;10.80;;;13.50;99.90;;;;;;7535461;19;20011;-74
2023/09/06 06:33:33;;;;;;;14.88;10.55;;;13.60;99.90;;;;;;7539718;19;20129;-74
2023/09/06 06:36:06;;;;;;;;;;;13.80;99.90;;;;;;7551952;19;21660;-74
2023/09/06 06:38:40;;;;;;;16.88;11.80;;;13.90;99.90;;;;;;7560071;19;19929;-74
2023/09/06 06:41:20;;;;;;;19.55;11.65;;;14.00;99.90;;;;;;7567867;19;20425;-73
2023/09/06 06:43:53;;;;;;;16.80;11.00;;;14.10;99.90;;;;;;7566789;19;20488;-75
2023/09/06 06:46:26;;;;;;;16.02;10.80;;;14.20;99.90;;;;;;7592300;19;21073;-77
2023/09/06 06:49:00;;;;;;;16.20;11.10;;;14.30;99.90;;;;;;7588040;19;20034;-75
2023/09/06 06:51:38;;;;;;;;;;;14.50;99.90;;;;;;7575240;19;20014;-76
2023/09/06 06:54:15;;;;;;;19.35;11.52;;;14.70;99.90;;;;;;7584036;19;19928;-75
2023/09/06 06:56:47;;;;;;;17.70;11.27;;;15.00;99.90;;;;;;7564144;19;20799;-76
2023/09/06 06:59:19;;;;;;;17.85;10.70;;;15.10;99.90;;;;;;7579154;19;20938;-74
2023/09/06 07:01:52;;;;;;;16.77;11.52;;;15.30;99.90;;;;;;7546425;19;20524;-75
2023/09/06 07:04:24;;;;;;;13.65;10.48;;;15.40;99.90;;;;;;7546100;19;20097;-74
2023/09/06 07:06:56;;;;;;;15.07;10.55;;;15.50;99.90;;;;;;7585650;19;21425;-75
2023/09/06 07:09:29;;;;;;;13.98;9.75;;;15.60;99.90;;;;;;7560444;19;20144;-75
2023/09/06 07:12:02;;;;;;;15.52;9.63;;;15.70;99.90;;;;;;7589983;19;20015;-75
2023/09/06 07:14:34;;;;;;;19.60;11.33;;;15.80;99.90;;;;;;7584589;19;20158;-75
2023/09/06 07:17:06;;;;;;;16.75;10.40;;;15.90;99.90;;;;;;7536378;19;20279;-74
2023/09/06 07:19:38;;;;;;;14.88;10.13;;;16.00;99.90;;;;;;7577942;19;20046;-75
2023/09/06 07:22:11;;;;;;;16.73;10.40;;;16.10;99.90;;;;;;7585298;19;20007;-76
2023/09/06 07:24:43;;;;;;;14.07;9.23;;;16.40;99.90;;;;;;7575556;19;20044;-75
2023/09/06 07:27:15;;;;;;;20.63;10.48;;;16.60;99.90;;;;;;7551352;19;20901;-77
2023/09/06 07:29:48;;;;;;;16.02;10.20;;;16.80;99.90;;;;;;7549586;19;20021;-76
2023/09/06 07:32:20;;;;;;;16.67;10.00;;;17.00;99.90;;;;;;7581967;19;20966;-77
2023/09/06 07:34:52;;;;;;;14.57;9.60;;;17.20;99.90;;;;;;7579331;19;20014;-77
2023/09/06 07:37:25;;;;;;;14.10;9.95;;;17.30;99.90;;;;;;7585544;19;20018;-76
2023/09/06 07:39:59;;;;;;;13.25;9.57;;;17.30;99.90;;;;;;7580362;19;20026;-77
2023/09/06 07:42:31;;;;;;;;;;;17.40;99.90;;;;;;7592427;19;20530;-77
2023/09/06 07:45:06;;;;;;;15.23;10.52;;;17.40;99.90;;;;;;7562146;19;19922;-76
2023/09/06 07:47:39;;;;;;;16.33;10.05;;;17.60;99.90;;;;;;7554552;19;20019;-76
2023/09/06 07:50:11;;;;;;;12.55;9.70;;;17.70;99.90;;;;;;7580395;19;20033;-76
2023/09/06 07:52:45;;;;;;;13.80;10.32;;;17.70;99.90;;;;;;7590574;19;20018;-76
2023/09/06 07:55:17;;;;;;;13.77;9.95;;;17.90;99.90;;;;;;7594491;19;20043;-77
2023/09/06 07:57:50;;;;;;;18.23;9.93;;;17.80;99.90;;;;;;7576917;19;20057;-76
2023/09/06 08:00:22;;;;;;;15.35;10.30;;;17.80;99.90;;;;;;7567467;19;20014;-76
2023/09/06 08:02:55;;;;;;;17.98;10.90;;;17.80;99.90;;;;;;7572222;19;20006;-77
2023/09/06 08:05:27;;;;;;;14.63;10.52;;;17.80;99.90;;;;;;7564789;19;20028;-76
2023/09/06 08:08:00;;;;;;;14.77;10.57;;;18.00;99.90;;;;;;7576103;19;20026;-76
2023/09/06 08:10:33;;;;;;;16.85;11.48;;;18.00;99.90;;;;;;7571298;19;20019;-76
2023/09/06 08:13:06;;;;;;;15.88;10.35;;;18.00;99.90;;;;;;7569839;19;20518;-76
2023/09/06 08:15:39;;;;;;;13.63;9.05;;;18.10;99.90;;;;;;7545345;19;20019;-75
2023/09/06 08:18:12;;;;;;;14.27;10.55;;;18.10;99.90;;;;;;7576393;19;20011;-76
2023/09/06 08:20:44;;;;;;;13.77;10.88;;;18.30;99.90;;;;;;7573568;19;20022;-76
2023/09/06 08:23:16;;;;;;;13.02;9.32;;;18.40;99.90;;;;;;7596693;19;20052;-77
2023/09/06 08:25:49;;;;;;;14.55;9.50;;;18.50;99.90;;;;;;7570249;19;20138;-76
2023/09/06 08:28:21;;;;;;;15.75;9.35;;;18.60;99.90;;;;;;7578883;19;20640;-76
2023/09/06 08:30:53;;;;;;;13.60;9.97;;;18.70;99.90;;;;;;7586084;19;20090;-77
2023/09/06 08:33:26;;;;;;;12.98;9.40;;;18.80;99.90;;;;;;7569957;19;20010;-77
2023/09/06 08:35:59;;;;;;;13.15;9.43;;;18.90;99.90;;;;;;7581906;19;20018;-75
2023/09/06 08:38:32;;;;;;;13.65;9.10;;;18.90;99.90;;;;;;7591802;19;20023;-76
2023/09/06 08:41:08;;;;;;;11.02;8.45;;;19.00;99.90;;;;;;7577559;19;20081;-76
2023/09/06 08:43:44;;;;;;;14.15;9.15;;;19.20;99.90;;;;;;7547147;19;20033;-76
2023/09/06 08:46:27;;;;;;;15.85;8.95;;;19.20;99.90;;;;;;7570548;19;20015;-77
2023/09/06 08:49:05;;;;;;;11.60;8.70;;;19.20;99.90;;;;;;7584885;19;20503;-75
2023/09/06 08:51:38;;;;;;;13.07;8.50;;;19.20;99.90;;;;;;7566686;19;20018;-74
2023/09/06 08:54:13;;;;;;;12.55;8.80;;;19.20;99.90;;;;;;7589190;19;20017;-75
2023/09/06 08:56:45;;;;;;;13.75;8.90;;;19.30;99.90;;;;;;7583536;19;20019;-75
2023/09/06 08:59:19;;;;;;;11.25;8.25;;;19.30;99.90;;;;;;7575490;19;20099;-75
2023/09/06 09:01:52;;;;;;;11.25;8.63;;;19.30;99.90;;;;;;7572397;19;20390;-75
2023/09/06 09:04:24;;;;;;;11.68;8.05;;;19.40;99.90;;;;;;7575486;19;20033;-75
2023/09/06 09:06:57;;;;;;;12.85;8.35;;;19.50;99.90;;;;;;7584536;19;20097;-75
2023/09/06 09:09:30;;;;;;;12.20;9.32;;;19.60;99.90;;;;;;7577307;19;20475;-76
2023/09/06 09:12:03;;;;;;;12.68;8.60;;;19.60;99.90;;;;;;7590817;19;20022;-74
2023/09/06 09:14:36;;;;;;;13.68;8.75;;;19.80;99.90;;;;;;7582203;19;20042;-75
2023/09/06 09:17:08;;;;;;;13.95;8.80;;;19.90;99.90;;;;;;7573797;19;20771;-76
2023/09/06 09:19:40;;;;;;;12.07;8.90;;;19.90;99.90;;;;;;7562101;19;20021;-75
2023/09/06 09:22:13;;;;;;;11.75;8.20;;;19.90;99.90;;;;;;7568998;19;20018;-74
2023/09/06 09:24:46;;;;;;;13.63;8.73;;;19.90;99.90;;;;;;7561524;19;20022;-77
2023/09/06 09:27:20;;;;;;;12.45;8.32;;;20.00;99.90;;;;;;7585728;19;22172;-77
2023/09/06 09:29:52;;;;;;;8.82;7.60;;;20.10;99.90;;;;;;7547401;19;20446;-77
2023/09/06 09:32:25;;;;;;;12.83;7.80;;;20.20;99.90;;;;;;7558056;19;20037;-77
2023/09/06 09:34:58;;;;;;;12.98;7.80;;;20.30;99.90;;;;;;7569756;19;20465;-75
2023/09/06 09:37:30;;;;;;;13.77;7.20;;;20.40;99.90;;;;;;7572349;19;20033;-75
2023/09/06 09:40:20;;;;;;;8.20;6.60;;;20.50;99.90;;;;;;7583958;19;20014;-75
2023/09/06 09:42:53;;;;;;;11.50;6.88;;;20.60;99.90;;;;;;7562781;19;20135;-77
2023/09/06 09:45:30;;;;;;;9.95;7.03;;;20.60;99.90;;;;;;7571977;19;20014;-75
2023/09/06 09:48:03;;;;;;;9.73;6.78;;;20.60;99.90;;;;;;7552415;19;20022;-76
2023/09/06 09:50:38;;;;;;;9.27;6.90;;;20.80;99.90;;;;;;7580785;19;20369;-76
2023/09/06 09:53:12;;;;;;;8.07;6.60;;;20.90;99.90;;;;;;7591937;19;20133;-77
2023/09/06 09:55:55;;;;;;;7.93;6.45;;;20.90;99.90;;;;;;7569619;19;20356;-76
2023/09/06 09:58:28;;;;;;;11.05;5.63;;;21.00;99.90;;;;;;7580417;19;20512;-74
2023/09/06 10:01:05;;;;;;;10.73;6.50;;;21.00;99.90;;;;;;7570215;19;20131;-78
2023/09/06 10:03:39;;;;;;;8.70;6.18;;;21.20;99.90;;;;;;7551014;19;20956;-76
2023/09/06 10:06:12;;;;;;;9.38;6.28;;;21.20;99.90;;;;;;7574465;19;20022;-77
2023/09/06 10:08:47;;;;;;;9.95;6.25;;;21.30;99.90;;;;;;7580759;19;20010;-77
2023/09/06 10:11:20;;;;;;;8.90;6.40;;;21.40;99.90;;;;;;7584900;19;20624;-77
2023/09/06 10:13:53;;;;;;;8.50;5.55;;;21.50;99.90;;;;;;7580659;19;20950;-75
2023/09/06 10:16:29;;;;;;;9.50;6.13;;;21.50;99.90;;;;;;7603095;19;20021;-75
2023/09/06 10:19:01;;;;;;;7.50;6.20;;;21.60;99.90;;;;;;7596420;19;20017;-75
2023/09/06 10:21:34;;;;;;;10.10;5.50;;;21.60;99.90;;;;;;7580743;19;20275;-75
2023/09/06 10:24:16;;;;;;;7.82;5.75;;;21.80;99.90;;;;;;7589944;19;20652;-75
2023/09/06 10:26:53;;;;;;;9.68;5.60;;;21.90;99.90;;;;;;7578060;19;20029;-75
2023/09/06 10:29:29;;;;;;;10.38;5.60;;;21.90;99.90;;;;;;7532843;19;20026;-75
2023/09/06 10:32:06;;;;;;;9.43;6.38;;;22.00;99.90;;;;;;7587000;19;20025;-77
2023/09/06 10:34:45;;;;;;;7.22;5.93;;;22.10;99.90;;;;;;7575078;19;20046;-75
2023/09/06 10:37:18;;;;;;;9.25;6.82;;;22.30;99.90;;;;;;7602392;19;20056;-75
2023/09/06 10:39:53;;;;;;;8.13;6.47;;;22.30;99.90;;;;;;7538595;19;20918;-75
2023/09/06 10:42:26;;;;;;;9.43;6.45;;;22.40;99.90;;;;;;7603248;19;20118;-75
2023/09/06 10:44:58;;;;;;;13.48;7.35;;;22.50;99.90;;;;;;7595054;19;20015;-75
2023/09/06 10:47:35;;;;;;;;;;;22.50;99.90;;;;;;7598004;19;20018;-76
2023/09/06 10:50:09;;;;;;;11.02;7.13;;;22.60;99.90;;;;;;7591234;19;19937;-76
2023/09/06 10:52:43;;;;;;;11.25;7.30;;;22.70;99.90;;;;;;7586465;19;20011;-74
2023/09/06 10:55:27;;;;;;;12.35;6.97;;;22.70;99.90;;;;;;7583239;19;20014;-75
2023/09/06 10:58:06;;;;;;;;;;;22.70;99.90;;;;;;7582739;19;22560;-74
2023/09/06 11:00:40;;;;;;;9.85;7.07;;;22.80;99.90;;;;;;7548101;19;21105;-74
2023/09/06 11:03:13;;;;;;;7.88;6.40;;;23.00;99.90;;;;;;7566629;19;21543;-75
2023/09/06 11:05:51;;;;;;;11.30;6.40;;;23.00;99.90;;;;;;7581796;19;20017;-74
2023/09/06 11:08:29;;;;;;;8.25;6.28;;;23.20;99.90;;;;;;7557708;19;20040;-74
2023/09/06 11:11:06;;;;;;;10.50;6.32;;;23.30;99.90;;;;;;7586383;19;20022;-75
2023/09/06 11:13:41;;;;;;;10.07;7.22;;;23.40;99.90;;;;;;7592567;19;20014;-74
2023/09/06 11:16:15;;;;;;;10.70;6.60;;;23.50;99.90;;;;;;7590019;19;20047;-75
2023/09/06 11:18:50;;;;;;;7.80;6.38;;;23.70;99.90;;;;;;7552793;19;20022;-75
2023/09/06 11:21:23;;;;;;;10.35;6.90;;;23.80;99.90;;;;;;7577303;19;20018;-75
2023/09/06 11:23:56;;;;;;;9.85;6.55;;;24.00;99.90;;;;;;7586967;19;20018;-75
2023/09/06 11:26:37;;;;;;;8.25;6.32;;;24.20;99.90;;;;;;7592016;19;20018;-75
2023/09/06 11:29:12;;;;;;;10.25;6.40;;;24.40;99.90;;;;;;7583820;19;20018;-75
2023/09/06 11:31:47;;;;;;;6.55;5.70;;;24.60;99.90;;;;;;7583590;19;20029;-76
2023/09/06 11:34:27;;;;;;;10.40;5.75;;;25.00;99.90;;;;;;7607265;19;20026;-75
2023/09/06 11:37:03;;;;;;;10.32;6.00;;;25.30;99.90;;;;;;7591789;19;20056;-75
2023/09/06 11:39:39;;;;;;;7.45;5.90;;;25.70;99.90;;;;;;7601666;19;20022;-76
2023/09/06 11:42:19;;;;;;;6.63;5.60;;;26.20;98.60;;;;;;7586099;19;20033;-75
2023/09/06 11:44:53;;;;;;;8.45;5.78;;;26.50;98.80;;;;;;7597227;19;20882;-76
2023/09/06 11:47:29;;;;;;;7.88;6.47;;;26.90;97.70;;;;;;7589015;19;20022;-76
2023/09/06 11:50:05;;;;;;;6.85;5.40;;;27.30;96.90;;;;;;7595575;19;20018;-75
2023/09/06 11:52:39;;;;;;;8.07;5.95;;;27.60;96.10;;;;;;7564718;19;20057;-76
2023/09/06 11:55:32;;;;;;;6.35;5.63;;;27.80;95.10;;;;;;7524562;19;20025;-76
2023/09/06 11:58:05;;;;;;;10.15;5.57;;;27.90;94.40;;;;;;7551402;19;20021;-76
2023/09/06 12:00:46;;;;;;;7.45;6.00;;;28.10;94.30;;;;;;7516418;19;20794;-77
2023/09/06 12:03:26;;;;;;;9.93;5.35;;;28.40;93.60;;;;;;7574576;19;20011;-77
2023/09/06 12:06:00;;;;;;;8.90;5.80;;;28.60;93.00;;;;;;7571254;19;20014;-78
2023/09/06 12:08:33;;;;;;;;;;;28.80;92.70;;;;;;7571627;19;20899;-77
2023/09/06 12:11:08;;;;;;;8.43;5.47;;;28.90;92.90;;;;;;7570203;19;20340;-79
2023/09/06 12:13:41;;;;;;;7.18;5.78;;;29.10;91.60;;;;;;7538985;19;20022;-79
2023/09/06 12:16:15;;;;;;;9.85;5.53;;;29.00;90.90;;;;;;7563837;19;21315;-77
2023/09/06 12:18:47;;;;;;;5.68;5.00;;;29.00;90.10;;;;;;7531550;19;20022;-78
2023/09/06 12:21:22;;;;;;;7.32;5.47;;;29.00;90.00;;;;;;7584183;19;20377;-77
2023/09/06 12:23:54;;;;;;;8.65;5.90;;;29.20;89.40;;;;;;7580036;19;20014;-78
2023/09/06 12:26:27;;;;;;;7.82;5.47;;;29.50;90.20;;;;;;7584964;19;20026;-77
2023/09/06 12:28:59;;;;;;;5.97;5.30;;;29.60;88.40;;;;;;7586457;19;20018;-78
2023/09/06 12:31:35;;;;;;;6.35;5.25;;;29.70;89.90;;;;;;7576439;19;20977;-76
2023/09/06 12:34:07;;;;;;;8.73;5.23;;;30.10;86.50;;;;;;7580028;19;20022;-77
2023/09/06 12:36:40;;;;;;;8.33;6.50;;;30.40;86.90;;;;;;7594043;19;20275;-77
2023/09/06 12:39:12;;;;;;;11.10;5.80;;;30.10;84.30;;;;;;7580441;19;21761;-77
2023/09/06 12:41:44;;;;;;;7.05;5.18;;;30.20;84.30;;;;;;7592905;19;20358;-77
2023/09/06 12:44:16;;;;;;;8.70;5.63;;;30.20;83.40;;;;;;7600105;19;20018;-77
2023/09/06 12:46:49;;;;;;;7.50;5.30;;;30.50;85.10;;;;;;7586797;19;20014;-78
2023/09/06 12:49:21;;;;;;;6.72;5.28;;;30.90;85.20;;;;;;7602788;19;20018;-77
2023/09/06 12:51:54;;;;;;;6.87;5.00;;;31.10;82.90;;;;;;7591689;19;20033;-77
2023/09/06 12:54:27;;;;;;;7.95;5.50;;;31.20;83.50;;;;;;7585559;19;21154;-78
2023/09/06 12:57:00;;;;;;;6.22;5.20;;;31.50;81.00;;;;;;7598125;19;20017;-77
2023/09/06 12:59:32;;;;;;;5.65;5.07;;;31.90;80.70;;;;;;7601553;19;21039;-77
2023/09/06 13:02:04;;;;;;;5.03;4.50;;;31.90;76.80;;;;;;7601694;19;20026;-77
2023/09/06 13:04:37;;;;;;;5.82;5.20;;;31.70;76.00;;;;;;7605148;19;20052;-77
2023/09/06 13:07:09;;;;;;;6.63;4.90;;;31.80;75.00;;;;;;7598481;19;20014;-78
2023/09/06 13:09:41;;;;;;;5.78;4.68;;;31.90;76.10;;;;;;7585212;19;20022;-77
2023/09/06 13:12:14;;;;;;;8.63;4.60;;;31.90;74.50;;;;;;7575612;19;20013;-77
2023/09/06 13:14:46;;;;;;;6.20;4.40;;;32.20;73.30;;;;;;7576646;19;20022;-77